To NAV CANADA Home Page Login to a new session Search on AWWS site Disclaimer Vers la page française équivalente Tips FAQ What's new on the site To the Forecasts and Observations / NOTAM section To "File a Flight Plan" website Publications and other links Update of the User's profile FIC Telephone Numbers My Weather Data Folder Route Weather Data Regional Weather Data Local Weather Data To the Forecasts and Observations / NOTAM section
Request Generated 10/21/2018 at 06:02:51 UTC . Weather information available at that time is displayed.

METAR/TAF

KINDERSLEY/KINDERSLEY REGIONAL/SK    

METAR CYKY 210600Z 28011KT 15SM FEW260 02/M02 A3005 RMK CI1 SLP194=
METAR CYKY 210500Z 28013KT 15SM FEW260 03/M01 A3003 RMK CI1 CI TR SLP190=
METAR CYKY 210400Z 25005KT 15SM FEW260 02/M01 A3002 RMK CI1 SLP190=

CYKY - No TAF is issued for this station

Your time UTC time
Weather data provided by Environment Canada and NAV CANADA